createdAt,value
2018-07-10T00:00:02.832Z,60.9
2018-07-10T00:05:33.460Z,60.6
2018-07-10T00:10:18.362Z,60.3
2018-07-10T00:15:02.681Z,60.3
2018-07-10T00:20:13.297Z,60.9
2018-07-10T00:25:05.919Z,60.6
2018-07-10T00:30:03.221Z,60.6
2018-07-10T00:35:02.545Z,61.2
2018-07-10T00:40:05.840Z,61.2
2018-07-10T00:45:11.132Z,61.5
2018-07-10T00:50:20.460Z,62
2018-07-10T00:55:10.658Z,61.9
2018-07-10T01:00:08.510Z,62
2018-07-10T01:05:12.802Z,62.4
2018-07-10T01:10:03.531Z,62.3
2018-07-10T01:15:05.433Z,62.4
2018-07-10T01:20:17.959Z,52.9
2018-07-10T01:30:20.959Z,63
2018-07-10T01:35:02.572Z,63
2018-07-10T01:40:08.420Z,64
2018-07-10T01:45:38.091Z,64.4
2018-07-10T01:50:03.446Z,64.4
2018-07-10T01:55:15.331Z,64.9
2018-07-10T02:00:25.365Z,64.4
2018-07-10T02:05:22.862Z,64.5
2018-07-10T02:10:07.764Z,65
2018-07-10T02:15:05.415Z,65.5
2018-07-10T02:20:15.389Z,64.7
2018-07-10T02:25:08.105Z,65.1
2018-07-10T02:30:05.138Z,65.5
2018-07-10T02:35:05.455Z,66.5
2018-07-10T02:40:05.687Z,67.1
2018-07-10T02:45:06.033Z,67
2018-07-10T02:50:03.316Z,67
2018-07-10T02:55:10.232Z,67.2
2018-07-10T03:00:08.577Z,67.2
2018-07-10T03:05:10.433Z,67.2
2018-07-10T03:10:15.761Z,67
2018-07-10T03:15:05.959Z,67.7
2018-07-10T03:20:03.250Z,67.6
2018-07-10T03:25:05.020Z,67.9
2018-07-10T03:30:08.308Z,68.1
2018-07-10T03:35:03.475Z,68.2
2018-07-10T03:40:10.745Z,68.1
2018-07-10T03:45:03.394Z,68
2018-07-10T03:50:05.127Z,68.6
2018-07-10T03:55:07.881Z,68.4
2018-07-10T04:00:10.672Z,69.2
2018-07-10T04:05:28.604Z,68.4
2018-07-10T04:10:03.217Z,68.4
2018-07-10T04:15:08.481Z,69
2018-07-10T04:20:07.828Z,68.8
2018-07-10T04:25:15.657Z,69.7
2018-07-10T04:30:02.854Z,69.7
2018-07-10T04:35:03.091Z,70.1
2018-07-10T04:40:05.225Z,69.7
2018-07-10T04:45:18.250Z,68.8
2018-07-10T04:50:26.209Z,69
2018-07-10T04:55:10.978Z,70.3
2018-07-10T05:00:10.800Z,69.6
2018-07-10T05:05:05.965Z,69.6
2018-07-10T05:10:37.975Z,70.5
2018-07-10T05:15:15.797Z,70.5
2018-07-10T05:20:15.702Z,70.8
2018-07-10T05:25:03.288Z,71.1
2018-07-10T05:30:08.537Z,72.8
2018-07-10T05:35:02.728Z,72.8
2018-07-10T05:40:08.385Z,74.1
2018-07-10T05:45:05.057Z,75.3
2018-07-10T05:50:05.936Z,75.1
2018-07-10T05:55:05.049Z,75.4
2018-07-10T06:00:16.054Z,76
2018-07-10T06:05:02.573Z,76
2018-07-10T06:10:33.783Z,76.4
2018-07-10T06:15:02.996Z,76.3
2018-07-10T06:20:03.551Z,76
2018-07-10T06:25:07.982Z,75.5
2018-07-10T06:30:03.197Z,75.4
2018-07-10T06:35:17.742Z,74
2018-07-10T06:40:03.367Z,74
2018-07-10T06:45:07.673Z,73.8
2018-07-10T06:50:02.873Z,73.7
2018-07-10T06:55:08.547Z,71.5
2018-07-10T07:00:12.869Z,72.2
2018-07-10T07:05:05.532Z,71.1
2018-07-10T07:10:08.213Z,71.3
2018-07-10T07:15:10.984Z,72
2018-07-10T07:20:15.909Z,71.1
2018-07-10T07:25:05.016Z,70.2
2018-07-10T07:30:13.345Z,69
2018-07-10T07:35:08.792Z,68.2
2018-07-10T07:40:05.956Z,68
2018-07-10T07:45:12.833Z,67.5
2018-07-10T07:50:03.028Z,67.5
2018-07-10T07:55:10.906Z,66.2
2018-07-10T08:00:03.188Z,66.1
2018-07-10T08:05:12.649Z,63.4
2018-07-10T08:10:03.254Z,63.4
2018-07-10T08:15:05.134Z,64
2018-07-10T08:20:08.488Z,62.3
2018-07-10T08:25:07.699Z,62
2018-07-10T08:30:13.087Z,64.4
2018-07-10T08:35:03.134Z,64.4
2018-07-10T08:40:02.645Z,64.4
2018-07-10T08:45:05.345Z,64.8
2018-07-10T08:50:03.462Z,64.8
2018-07-10T08:55:05.176Z,63
2018-07-10T09:00:03.293Z,62.9
2018-07-10T09:05:04.998Z,63.3
2018-07-10T09:10:05.054Z,63.3
2018-07-10T09:15:02.697Z,63.3
2018-07-10T09:20:02.868Z,64.1
2018-07-10T09:25:03.076Z,63.1
2018-07-10T09:30:03.233Z,62.4
2018-07-10T09:35:13.519Z,59.4
2018-07-10T09:40:03.037Z,59.4
2018-07-10T09:45:03.456Z,59.5
2018-07-10T09:50:02.596Z,58.9
2018-07-10T09:55:03.026Z,59.6
2018-07-10T10:00:05.807Z,59.2
2018-07-10T10:05:05.921Z,57.8
2018-07-10T10:10:02.536Z,57.8
2018-07-10T10:15:05.252Z,56.2
2018-07-10T10:20:06.017Z,54.9
2018-07-10T10:25:02.659Z,54.9
2018-07-10T10:30:02.759Z,54.2
2018-07-10T10:35:08.021Z,54.4
2018-07-10T10:40:02.563Z,54.4
2018-07-10T10:45:05.295Z,54
2018-07-10T10:50:03.409Z,54
2018-07-10T10:55:02.781Z,55.1
2018-07-10T11:00:02.910Z,54.1
2018-07-10T11:05:05.756Z,56.1
2018-07-10T11:10:03.301Z,56.1
2018-07-10T11:15:13.567Z,55.1
2018-07-10T11:20:02.746Z,55.1
2018-07-10T11:25:02.927Z,54.9
2018-07-10T11:30:08.102Z,55.2
2018-07-10T11:35:05.749Z,53.4
2018-07-10T11:40:03.302Z,53.3
2018-07-10T11:45:05.015Z,54.9
2018-07-10T11:50:08.286Z,54
2018-07-10T11:55:08.455Z,55
2018-07-10T12:00:02.597Z,55
2018-07-10T12:05:10.368Z,54.7
2018-07-10T12:10:07.929Z,55
2018-07-10T12:15:10.663Z,56.2
2018-07-10T12:20:02.935Z,56.1
2018-07-10T12:25:05.677Z,56
2018-07-10T12:30:02.845Z,56
2018-07-10T12:35:03.071Z,57
2018-07-10T12:40:02.627Z,57.6
2018-07-10T12:45:05.343Z,58.2
2018-07-10T12:50:11.074Z,59.2
2018-07-10T12:55:05.172Z,59.4
2018-07-10T13:00:02.539Z,59.4
2018-07-10T13:05:10.409Z,59.7
2018-07-10T13:10:02.950Z,59.7
2018-07-10T13:15:03.181Z,60.6
2018-07-10T13:20:25.439Z,59.8
2018-07-10T13:25:05.400Z,59.3
2018-07-10T13:30:35.662Z,59.8
2018-07-10T13:35:23.309Z,59.3
2018-07-10T13:40:08.259Z,60.6
2018-07-10T13:45:17.749Z,60.6
2018-07-10T13:50:15.932Z,60.5
2018-07-10T13:55:25.361Z,60.4
2018-07-10T14:00:05.273Z,60.8
2018-07-10T14:05:10.998Z,60.4
2018-07-10T14:10:05.497Z,60.6
2018-07-10T14:15:11.088Z,62
2018-07-10T14:20:03.535Z,62
2018-07-10T14:25:13.258Z,62
2018-07-10T14:30:10.374Z,61.6
2018-07-10T14:35:13.393Z,61
2018-07-10T14:40:10.913Z,61
2018-07-10T14:45:20.330Z,60.9
2018-07-10T14:50:07.740Z,59.7
2018-07-10T14:55:10.766Z,59.3
2018-07-10T15:00:05.682Z,58.9
2018-07-10T15:05:05.173Z,59.6
2018-07-10T15:10:08.081Z,59.9
2018-07-10T15:15:21.665Z,58.1
2018-07-10T15:20:13.388Z,57.8
2018-07-10T15:25:07.797Z,58.5
2018-07-10T15:30:05.846Z,59.6
2018-07-10T15:35:10.285Z,60
2018-07-10T15:40:21.138Z,62.2
2018-07-10T15:45:05.137Z,62.7
2018-07-10T15:50:08.622Z,63
2018-07-10T15:55:10.698Z,62.9
2018-07-10T16:00:08.205Z,62.4
2018-07-10T16:05:21.242Z,62.5
2018-07-10T16:10:23.573Z,60.4
2018-07-10T16:15:02.967Z,60.4
2018-07-10T16:20:16.090Z,62.7
2018-07-10T16:25:05.433Z,61.4
2018-07-10T16:30:05.394Z,61.2
2018-07-10T16:35:03.310Z,61.2
2018-07-10T16:40:10.781Z,61.5
2018-07-10T16:45:17.790Z,60.1
2018-07-10T16:55:33.021Z,60.8
2018-07-10T17:00:11.113Z,60.5
2018-07-10T17:05:10.396Z,60.1
2018-07-10T17:10:03.306Z,60.1
2018-07-10T17:15:02.772Z,60.4
2018-07-10T17:20:05.835Z,61.9
2018-07-10T17:25:30.611Z,62
2018-07-10T17:30:05.594Z,63
2018-07-10T17:35:13.647Z,62.7
2018-07-10T17:45:23.057Z,64.2
2018-07-10T17:50:23.719Z,64.6
2018-07-10T17:55:03.238Z,64.6
2018-07-10T18:00:12.745Z,66
2018-07-10T18:05:03.072Z,66
2018-07-10T18:10:05.554Z,66.4
2018-07-10T18:15:08.527Z,66.1
2018-07-10T18:20:13.180Z,66.4
2018-07-10T18:25:03.547Z,66.4
2018-07-10T18:30:26.079Z,64.8
2018-07-10T18:35:26.294Z,65.3
2018-07-10T18:40:08.244Z,66.5
2018-07-10T18:45:18.254Z,66.6
2018-07-10T18:50:05.165Z,66.7
2018-07-10T18:55:10.236Z,66.5
2018-07-10T19:00:10.270Z,69.8
2018-07-10T19:05:05.937Z,71.4
2018-07-10T19:10:05.608Z,72.8
2018-07-10T19:20:23.311Z,73.6
2018-07-10T19:25:17.908Z,75
2018-07-10T19:30:23.776Z,75.7
2018-07-10T19:35:08.248Z,76.1
2018-07-10T19:40:30.984Z,76.3
2018-07-10T19:45:31.355Z,76.9
2018-07-10T19:50:28.039Z,77
2018-07-10T19:55:03.545Z,77.1
2018-07-10T20:00:05.460Z,78.9
2018-07-10T20:05:05.884Z,79.3
2018-07-10T20:10:05.282Z,80
2018-07-10T20:15:05.706Z,80.4
2018-07-10T20:20:13.352Z,80.6
2018-07-10T20:25:02.582Z,80.6
2018-07-10T20:30:10.632Z,80.9
2018-07-10T20:35:23.666Z,81
2018-07-10T20:40:03.539Z,81
2018-07-10T20:45:08.076Z,80.7
2018-07-10T20:50:05.985Z,80.7
2018-07-10T20:55:10.469Z,81.4
2018-07-10T21:00:35.686Z,81.4
2018-07-10T21:05:08.101Z,82
2018-07-10T21:10:05.582Z,82.3
2018-07-10T21:15:03.458Z,82.2
2018-07-10T21:20:02.984Z,82.6
2018-07-10T21:25:05.857Z,83.6
2018-07-10T21:30:08.343Z,84
2018-07-10T21:40:03.380Z,83.9
2018-07-10T21:45:07.929Z,84
2018-07-10T21:50:06.041Z,84.6
2018-07-10T21:55:02.853Z,84.5
2018-07-10T22:00:11.015Z,85.3
2018-07-10T22:05:02.896Z,85.3
2018-07-10T22:10:07.904Z,84.2
2018-07-10T22:15:21.106Z,83.6
2018-07-10T22:20:07.682Z,83.7
2018-07-10T22:25:13.078Z,83.6
2018-07-10T22:30:08.612Z,83.5
2018-07-10T22:35:02.917Z,83.5
2018-07-10T22:40:02.888Z,83.9
2018-07-10T22:45:05.820Z,84.3
2018-07-10T22:50:08.281Z,83.8
2018-07-10T22:55:33.030Z,83
2018-07-10T23:00:03.453Z,82.9
2018-07-10T23:05:17.964Z,82.9
2018-07-10T23:15:20.772Z,83.2
2018-07-10T23:20:05.827Z,83.9
2018-07-10T23:25:28.016Z,84.5
2018-07-10T23:30:13.476Z,85.3
2018-07-10T23:35:07.914Z,86
2018-07-10T23:40:05.273Z,86.6
2018-07-10T23:45:03.181Z,86.6
2018-07-10T23:50:36.597Z,35.8
2018-07-10T23:55:25.813Z,87.6
